Fairplay, Maryland
Current Conditions -  °F | °C
As of 6:53 PM on Thursday 18 Dec 2014 (Local Time) from KHGR Reporting Station
Overcast Overcast  
Wind Chill: 27°   Ceiling: 2900
Heat Index: 34°   Visibility: 10mi
Dew Point: 22°   Wind: 8mph
Humidity: 61%   Direction: 290°WNW
Pressure: 30.1"   Gusts: NA
Location:  39.54°N, 77.75°W
Report Text: KHGR 182353Z 29007KT 10SM OVC029 01/M06 A3010 RMK AO2 SLP210 T00111056 10028 20006 51009
Loading
Personal Weather Stations






























Interactive Weather Map New forecast layout! Learn more

10-Day Weather Forecast

Advertisements
Track Severe Weather on mobile